sensor_id;sensor_type;location;lat;lon;timestamp;pressure;altitude;pressure_sealevel;temperature;humidity
40920;BME280;26652;50.280;19.026;2023-05-11T00:00:49;98456.97;;;11.95;58.45
40920;BME280;26652;50.280;19.026;2023-05-11T00:03:03;98454.84;;;11.98;57.93
40920;BME280;26652;50.280;19.026;2023-05-11T00:05:22;98454.19;;;11.90;56.47
40920;BME280;26652;50.280;19.026;2023-05-11T00:07:46;98443.38;;;11.88;58.17
40920;BME280;26652;50.280;19.026;2023-05-11T00:10:00;98454.97;;;11.90;57.39
40920;BME280;26652;50.280;19.026;2023-05-11T00:12:19;98441.31;;;11.76;57.56
40920;BME280;26652;50.280;19.026;2023-05-11T00:14:29;98452.16;;;11.78;59.89
40920;BME280;26652;50.280;19.026;2023-05-11T00:16:42;98454.13;;;11.83;60.58
40920;BME280;26652;50.280;19.026;2023-05-11T00:18:50;98439.50;;;11.70;60.31
40920;BME280;26652;50.280;19.026;2023-05-11T00:21:03;98445.63;;;11.55;61.86
40920;BME280;26652;50.280;19.026;2023-05-11T00:23:09;98445.75;;;11.46;62.12
40920;BME280;26652;50.280;19.026;2023-05-11T00:25:24;98446.16;;;11.43;61.38
40920;BME280;26652;50.280;19.026;2023-05-11T00:27:39;98455.41;;;11.51;59.03
40920;BME280;26652;50.280;19.026;2023-05-11T00:30:03;98450.47;;;11.43;58.96
40920;BME280;26652;50.280;19.026;2023-05-11T00:32:10;98444.81;;;11.26;59.66
40920;BME280;26652;50.280;19.026;2023-05-11T00:34:24;98448.22;;;11.33;59.80
40920;BME280;26652;50.280;19.026;2023-05-11T00:36:33;98443.59;;;11.22;61.55
40920;BME280;26652;50.280;19.026;2023-05-11T00:38:58;98453.50;;;11.32;60.41
40920;BME280;26652;50.280;19.026;2023-05-11T00:41:04;98451.84;;;11.24;60.32
40920;BME280;26652;50.280;19.026;2023-05-11T00:43:33;98443.41;;;11.24;60.58
40920;BME280;26652;50.280;19.026;2023-05-11T00:45:48;98443.06;;;11.27;60.47
40920;BME280;26652;50.280;19.026;2023-05-11T00:47:59;98449.06;;;11.19;62.17
40920;BME280;26652;50.280;19.026;2023-05-11T00:50:05;98449.53;;;11.08;62.90
40920;BME280;26652;50.280;19.026;2023-05-11T00:52:21;98447.97;;;10.92;63.09
40920;BME280;26652;50.280;19.026;2023-05-11T00:54:31;98444.28;;;10.95;63.56
40920;BME280;26652;50.280;19.026;2023-05-11T00:56:42;98450.66;;;11.05;64.90
40920;BME280;26652;50.280;19.026;2023-05-11T00:58:56;98444.34;;;11.01;63.24
40920;BME280;26652;50.280;19.026;2023-05-11T01:01:12;98445.78;;;10.89;65.61
40920;BME280;26652;50.280;19.026;2023-05-11T01:03:21;98452.31;;;10.77;65.66
40920;BME280;26652;50.280;19.026;2023-05-11T01:05:54;98440.44;;;10.84;65.12
40920;BME280;26652;50.280;19.026;2023-05-11T01:08:14;98451.94;;;10.95;66.16
40920;BME280;26652;50.280;19.026;2023-05-11T01:11:06;98441.47;;;10.90;64.38
40920;BME280;26652;50.280;19.026;2023-05-11T01:13:37;98449.28;;;11.03;63.10
40920;BME280;26652;50.280;19.026;2023-05-11T01:16:08;98447.56;;;10.74;65.80
40920;BME280;26652;50.280;19.026;2023-05-11T01:18:45;98452.91;;;10.79;65.23
40920;BME280;26652;50.280;19.026;2023-05-11T01:21:01;98448.44;;;10.81;63.29
40920;BME280;26652;50.280;19.026;2023-05-11T01:23:23;98448.34;;;10.74;63.57
40920;BME280;26652;50.280;19.026;2023-05-11T01:31:20;98456.59;;;10.76;65.01
40920;BME280;26652;50.280;19.026;2023-05-11T01:33:36;98447.22;;;10.62;65.73
40920;BME280;26652;50.280;19.026;2023-05-11T01:35:50;98448.88;;;10.70;64.33
40920;BME280;26652;50.280;19.026;2023-05-11T01:38:00;98450.22;;;10.66;65.19
40920;BME280;26652;50.280;19.026;2023-05-11T01:40:16;98445.56;;;10.69;66.84
40920;BME280;26652;50.280;19.026;2023-05-11T01:42:37;98448.09;;;10.69;67.68
40920;BME280;26652;50.280;19.026;2023-05-11T01:44:50;98454.69;;;10.64;65.66
40920;BME280;26652;50.280;19.026;2023-05-11T01:46:59;98453.22;;;10.40;67.52
40920;BME280;26652;50.280;19.026;2023-05-11T01:49:11;98444.53;;;10.34;68.15
40920;BME280;26652;50.280;19.026;2023-05-11T01:51:19;98444.81;;;10.39;68.02
40920;BME280;26652;50.280;19.026;2023-05-11T01:53:35;98444.81;;;10.39;67.01
40920;BME280;26652;50.280;19.026;2023-05-11T01:55:46;98442.78;;;10.35;66.77
40920;BME280;26652;50.280;19.026;2023-05-11T01:57:57;98444.44;;;10.28;66.51
40920;BME280;26652;50.280;19.026;2023-05-11T02:00:06;98450.78;;;10.32;67.12
40920;BME280;26652;50.280;19.026;2023-05-11T02:02:18;98442.12;;;10.03;68.55
40920;BME280;26652;50.280;19.026;2023-05-11T02:04:29;98442.53;;;9.92;69.11
40920;BME280;26652;50.280;19.026;2023-05-11T02:06:41;98453.44;;;10.01;67.21
40920;BME280;26652;50.280;19.026;2023-05-11T02:08:49;98451.41;;;9.96;67.54
40920;BME280;26652;50.280;19.026;2023-05-11T02:11:02;98450.84;;;9.86;68.85
40920;BME280;26652;50.280;19.026;2023-05-11T02:13:10;98454.72;;;9.97;69.67
40920;BME280;26652;50.280;19.026;2023-05-11T02:15:22;98456.13;;;9.99;68.50
40920;BME280;26652;50.280;19.026;2023-05-11T02:17:29;98456.69;;;10.09;67.45
40920;BME280;26652;50.280;19.026;2023-05-11T02:19:42;98453.87;;;10.19;66.58
40920;BME280;26652;50.280;19.026;2023-05-11T02:21:48;98456.59;;;10.18;66.43
40920;BME280;26652;50.280;19.026;2023-05-11T02:24:01;98456.00;;;10.15;66.59
40920;BME280;26652;50.280;19.026;2023-05-11T02:26:11;98455.19;;;10.15;68.32
40920;BME280;26652;50.280;19.026;2023-05-11T02:28:22;98450.47;;;10.12;68.10
40920;BME280;26652;50.280;19.026;2023-05-11T02:30:45;98453.97;;;10.11;68.32
40920;BME280;26652;50.280;19.026;2023-05-11T02:32:59;98447.00;;;9.90;68.89
40920;BME280;26652;50.280;19.026;2023-05-11T02:35:12;98451.13;;;9.91;69.14
40920;BME280;26652;50.280;19.026;2023-05-11T02:37:26;98452.84;;;9.76;69.74
40920;BME280;26652;50.280;19.026;2023-05-11T02:39:36;98456.28;;;9.83;69.17
40920;BME280;26652;50.280;19.026;2023-05-11T02:41:45;98451.81;;;9.85;68.76
40920;BME280;26652;50.280;19.026;2023-05-11T02:43:52;98444.88;;;9.79;68.67
40920;BME280;26652;50.280;19.026;2023-05-11T02:46:07;98454.44;;;9.77;68.28
40920;BME280;26652;50.280;19.026;2023-05-11T02:48:24;98447.25;;;9.58;70.64
40920;BME280;26652;50.280;19.026;2023-05-11T02:50:42;98444.34;;;9.46;71.59
40920;BME280;26652;50.280;19.026;2023-05-11T02:52:50;98447.59;;;9.55;70.57
40920;BME280;26652;50.280;19.026;2023-05-11T02:55:02;98453.47;;;9.55;70.79
40920;BME280;26652;50.280;19.026;2023-05-11T02:57:12;98437.94;;;9.35;73.03
40920;BME280;26652;50.280;19.026;2023-05-11T02:59:30;98444.06;;;9.18;73.42
40920;BME280;26652;50.280;19.026;2023-05-11T03:01:37;98447.09;;;9.36;72.46
40920;BME280;26652;50.280;19.026;2023-05-11T03:03:48;98445.44;;;9.29;72.36
40920;BME280;26652;50.280;19.026;2023-05-11T03:06:13;98441.34;;;9.42;71.36
40920;BME280;26652;50.280;19.026;2023-05-11T03:08:34;98450.81;;;9.48;71.72
40920;BME280;26652;50.280;19.026;2023-05-11T03:10:44;98447.63;;;9.32;72.93
40920;BME280;26652;50.280;19.026;2023-05-11T03:12:59;98444.53;;;9.22;73.61
40920;BME280;26652;50.280;19.026;2023-05-11T03:15:11;98448.88;;;9.36;73.18
40920;BME280;26652;50.280;19.026;2023-05-11T03:17:42;98450.38;;;9.45;72.02
40920;BME280;26652;50.280;19.026;2023-05-11T03:19:51;98444.44;;;9.52;71.61
40920;BME280;26652;50.280;19.026;2023-05-11T03:22:10;98448.44;;;9.47;72.45
40920;BME280;26652;50.280;19.026;2023-05-11T03:24:19;98450.31;;;9.53;72.98
40920;BME280;26652;50.280;19.026;2023-05-11T03:26:32;98449.47;;;9.61;72.45
40920;BME280;26652;50.280;19.026;2023-05-11T03:28:42;98444.66;;;9.66;72.39
40920;BME280;26652;50.280;19.026;2023-05-11T03:30:57;98452.84;;;9.76;73.41
40920;BME280;26652;50.280;19.026;2023-05-11T03:33:08;98449.50;;;9.75;71.84
40920;BME280;26652;50.280;19.026;2023-05-11T03:35:33;98456.72;;;9.87;72.09
40920;BME280;26652;50.280;19.026;2023-05-11T03:37:41;98460.53;;;10.05;70.42
40920;BME280;26652;50.280;19.026;2023-05-11T03:39:56;98450.47;;;10.12;69.59
40920;BME280;26652;50.280;19.026;2023-05-11T03:42:04;98457.97;;;10.28;70.13
40920;BME280;26652;50.280;19.026;2023-05-11T03:44:18;98459.03;;;10.34;69.35
40920;BME280;26652;50.280;19.026;2023-05-11T03:46:25;98450.16;;;10.30;67.35
40920;BME280;26652;50.280;19.026;2023-05-11T03:48:37;98459.97;;;10.47;67.70
40920;BME280;26652;50.280;19.026;2023-05-11T03:50:46;98455.13;;;10.53;69.28
40920;BME280;26652;50.280;19.026;2023-05-11T03:52:58;98461.09;;;10.74;67.49
40920;BME280;26652;50.280;19.026;2023-05-11T03:55:04;98469.94;;;10.93;67.15
40920;BME280;26652;50.280;19.026;2023-05-11T03:57:15;98460.56;;;11.15;65.93
40920;BME280;26652;50.280;19.026;2023-05-11T03:59:22;98467.38;;;11.29;64.95
40920;BME280;26652;50.280;19.026;2023-05-11T04:01:32;98460.63;;;11.22;65.06
40920;BME280;26652;50.280;19.026;2023-05-11T04:03:48;98466.41;;;11.30;65.00
40920;BME280;26652;50.280;19.026;2023-05-11T04:06:01;98467.72;;;11.47;64.01
40920;BME280;26652;50.280;19.026;2023-05-11T04:08:10;98454.94;;;11.41;63.85
40920;BME280;26652;50.280;19.026;2023-05-11T04:10:25;98464.62;;;11.52;63.03
40920;BME280;26652;50.280;19.026;2023-05-11T04:12:34;98470.25;;;11.41;63.07
40920;BME280;26652;50.280;19.026;2023-05-11T04:14:52;98466.75;;;11.48;63.32
40920;BME280;26652;50.280;19.026;2023-05-11T04:17:01;98470.63;;;11.44;63.83
40920;BME280;26652;50.280;19.026;2023-05-11T04:19:19;98465.31;;;11.39;63.46
40920;BME280;26652;50.280;19.026;2023-05-11T04:21:27;98467.50;;;11.42;63.28
40920;BME280;26652;50.280;19.026;2023-05-11T04:23:39;98473.59;;;11.41;64.04
40920;BME280;26652;50.280;19.026;2023-05-11T04:25:54;98479.84;;;11.39;63.99
40920;BME280;26652;50.280;19.026;2023-05-11T04:28:05;98465.84;;;11.13;64.11
40920;BME280;26652;50.280;19.026;2023-05-11T04:30:31;98477.78;;;11.13;63.71
40920;BME280;26652;50.280;19.026;2023-05-11T04:32:55;98477.06;;;11.19;64.04
40920;BME280;26652;50.280;19.026;2023-05-11T04:35:03;98477.31;;;11.24;65.13
40920;BME280;26652;50.280;19.026;2023-05-11T04:37:13;98468.41;;;11.35;63.45
40920;BME280;26652;50.280;19.026;2023-05-11T04:39:23;98468.78;;;11.32;63.23
40920;BME280;26652;50.280;19.026;2023-05-11T04:41:36;98476.97;;;11.27;63.50
40920;BME280;26652;50.280;19.026;2023-05-11T04:43:48;98475.13;;;11.21;63.18
40920;BME280;26652;50.280;19.026;2023-05-11T04:46:00;98482.84;;;11.28;62.95
40920;BME280;26652;50.280;19.026;2023-05-11T04:48:08;98481.22;;;11.41;62.38
40920;BME280;26652;50.280;19.026;2023-05-11T04:50:29;98481.78;;;11.37;62.03
40920;BME280;26652;50.280;19.026;2023-05-11T04:52:38;98476.13;;;11.41;62.68
40920;BME280;26652;50.280;19.026;2023-05-11T04:54:56;98479.06;;;11.45;61.62
40920;BME280;26652;50.280;19.026;2023-05-11T04:57:11;98482.59;;;11.65;62.77
40920;BME280;26652;50.280;19.026;2023-05-11T04:59:28;98485.63;;;11.75;61.68
40920;BME280;26652;50.280;19.026;2023-05-11T05:01:46;98481.97;;;11.78;61.19
40920;BME280;26652;50.280;19.026;2023-05-11T05:04:03;98470.88;;;11.92;61.27
40920;BME280;26652;50.280;19.026;2023-05-11T05:06:14;98485.56;;;12.11;60.79
40920;BME280;26652;50.280;19.026;2023-05-11T05:08:36;98477.44;;;12.29;60.92
40920;BME280;26652;50.280;19.026;2023-05-11T05:10:58;98483.38;;;12.36;60.73
40920;BME280;26652;50.280;19.026;2023-05-11T05:13:35;98479.28;;;12.49;60.29
40920;BME280;26652;50.280;19.026;2023-05-11T05:15:43;98485.63;;;12.59;59.84
40920;BME280;26652;50.280;19.026;2023-05-11T05:17:59;98487.31;;;12.80;59.81
40920;BME280;26652;50.280;19.026;2023-05-11T05:20:07;98487.94;;;12.89;58.98
40920;BME280;26652;50.280;19.026;2023-05-11T05:22:21;98490.66;;;12.87;58.01
40920;BME280;26652;50.280;19.026;2023-05-11T05:24:30;98488.31;;;12.86;58.29
40920;BME280;26652;50.280;19.026;2023-05-11T05:26:49;98486.72;;;12.85;58.50
40920;BME280;26652;50.280;19.026;2023-05-11T05:28:57;98488.59;;;13.10;59.08
40920;BME280;26652;50.280;19.026;2023-05-11T05:31:11;98489.47;;;13.24;58.35
40920;BME280;26652;50.280;19.026;2023-05-11T05:33:19;98492.22;;;13.29;57.33
40920;BME280;26652;50.280;19.026;2023-05-11T05:35:36;98485.91;;;13.19;57.56
40920;BME280;26652;50.280;19.026;2023-05-11T05:37:51;98485.56;;;13.35;57.98
40920;BME280;26652;50.280;19.026;2023-05-11T05:40:07;98492.91;;;13.10;56.94
40920;BME280;26652;50.280;19.026;2023-05-11T05:42:14;98486.91;;;13.24;58.83
40920;BME280;26652;50.280;19.026;2023-05-11T05:44:28;98485.34;;;13.36;57.99
40920;BME280;26652;50.280;19.026;2023-05-11T05:46:36;98494.22;;;13.47;58.30
40920;BME280;26652;50.280;19.026;2023-05-11T05:48:58;98490.84;;;13.27;56.31
40920;BME280;26652;50.280;19.026;2023-05-11T05:51:12;98489.97;;;13.06;56.83
40920;BME280;26652;50.280;19.026;2023-05-11T05:53:40;98489.78;;;13.08;57.24
40920;BME280;26652;50.280;19.026;2023-05-11T05:55:54;98492.19;;;13.16;57.20
40920;BME280;26652;50.280;19.026;2023-05-11T05:58:06;98487.50;;;13.33;57.21
40920;BME280;26652;50.280;19.026;2023-05-11T06:00:15;98488.91;;;13.42;56.51
40920;BME280;26652;50.280;19.026;2023-05-11T06:02:26;98484.97;;;13.46;57.56
40920;BME280;26652;50.280;19.026;2023-05-11T06:04:44;98485.56;;;13.61;56.90
40920;BME280;26652;50.280;19.026;2023-05-11T06:07:02;98498.56;;;13.66;55.97
40920;BME280;26652;50.280;19.026;2023-05-11T06:09:10;98493.84;;;13.83;56.64
40920;BME280;26652;50.280;19.026;2023-05-11T06:11:22;98495.22;;;13.92;56.46
40920;BME280;26652;50.280;19.026;2023-05-11T06:13:35;98495.62;;;13.89;55.83
40920;BME280;26652;50.280;19.026;2023-05-11T06:15:50;98496.03;;;13.86;55.52
40920;BME280;26652;50.280;19.026;2023-05-11T06:18:03;98498.75;;;13.78;56.46
40920;BME280;26652;50.280;19.026;2023-05-11T06:20:14;98507.03;;;14.06;56.35
40920;BME280;26652;50.280;19.026;2023-05-11T06:22:28;98501.50;;;14.23;57.03
40920;BME280;26652;50.280;19.026;2023-05-11T06:24:46;98508.59;;;14.34;55.66
40920;BME280;26652;50.280;19.026;2023-05-11T06:26:54;98499.75;;;14.43;55.62
40920;BME280;26652;50.280;19.026;2023-05-11T06:29:06;98508.03;;;14.45;55.49
40920;BME280;26652;50.280;19.026;2023-05-11T06:31:15;98514.06;;;14.64;54.73
40920;BME280;26652;50.280;19.026;2023-05-11T06:33:28;98509.13;;;14.69;55.09
40920;BME280;26652;50.280;19.026;2023-05-11T06:35:35;98510.69;;;14.70;55.08
40920;BME280;26652;50.280;19.026;2023-05-11T06:37:49;98510.91;;;14.62;55.47
40920;BME280;26652;50.280;19.026;2023-05-11T06:39:55;98508.09;;;14.83;54.82
40920;BME280;26652;50.280;19.026;2023-05-11T06:42:15;98515.13;;;15.01;54.68
40920;BME280;26652;50.280;19.026;2023-05-11T06:44:25;98516.34;;;14.92;53.90
40920;BME280;26652;50.280;19.026;2023-05-11T06:46:53;98514.06;;;15.15;55.05
40920;BME280;26652;50.280;19.026;2023-05-11T06:49:12;98514.03;;;15.22;54.53
40920;BME280;26652;50.280;19.026;2023-05-11T06:51:32;98520.72;;;15.29;53.57
40920;BME280;26652;50.280;19.026;2023-05-11T06:53:40;98517.44;;;15.54;53.71
40920;BME280;26652;50.280;19.026;2023-05-11T06:55:58;98514.31;;;15.77;53.55
40920;BME280;26652;50.280;19.026;2023-05-11T06:58:11;98508.25;;;15.96;53.30
40920;BME280;26652;50.280;19.026;2023-05-11T07:00:30;98510.38;;;16.24;52.81
40920;BME280;26652;50.280;19.026;2023-05-11T07:02:39;98511.50;;;16.53;52.57
40920;BME280;26652;50.280;19.026;2023-05-11T07:04:57;98509.06;;;16.76;50.33
40920;BME280;26652;50.280;19.026;2023-05-11T07:07:09;98510.34;;;17.04;49.99
40920;BME280;26652;50.280;19.026;2023-05-11T07:09:23;98511.66;;;17.54;48.34
40920;BME280;26652;50.280;19.026;2023-05-11T07:11:32;98504.00;;;18.01;47.82
40920;BME280;26652;50.280;19.026;2023-05-11T07:14:01;98511.81;;;18.53;47.38
40920;BME280;26652;50.280;19.026;2023-05-11T07:16:12;98516.28;;;19.09;45.97
40920;BME280;26652;50.280;19.026;2023-05-11T07:18:23;98514.47;;;19.67;46.01
40920;BME280;26652;50.280;19.026;2023-05-11T07:20:31;98518.56;;;20.35;45.45
40920;BME280;26652;50.280;19.026;2023-05-11T07:22:48;98517.72;;;20.46;42.03
40920;BME280;26652;50.280;19.026;2023-05-11T07:25:05;98510.66;;;21.07;41.84
40920;BME280;26652;50.280;19.026;2023-05-11T07:27:18;98518.81;;;21.42;40.45
40920;BME280;26652;50.280;19.026;2023-05-11T07:29:33;98516.44;;;21.68;42.49
40920;BME280;26652;50.280;19.026;2023-05-11T07:31:47;98513.19;;;21.87;39.58
40920;BME280;26652;50.280;19.026;2023-05-11T07:34:01;98518.12;;;21.89;39.05
40920;BME280;26652;50.280;19.026;2023-05-11T07:36:12;98517.63;;;21.92;41.43
40920;BME280;26652;50.280;19.026;2023-05-11T07:38:21;98516.09;;;21.59;39.05
40920;BME280;26652;50.280;19.026;2023-05-11T07:40:35;98521.22;;;21.81;39.70
40920;BME280;26652;50.280;19.026;2023-05-11T07:42:59;98516.81;;;22.18;39.20
40920;BME280;26652;50.280;19.026;2023-05-11T07:45:10;98516.59;;;22.25;39.95
40920;BME280;26652;50.280;19.026;2023-05-11T07:47:17;98516.22;;;22.54;38.31
40920;BME280;26652;50.280;19.026;2023-05-11T07:49:31;98512.09;;;22.58;38.36
40920;BME280;26652;50.280;19.026;2023-05-11T07:51:45;98520.13;;;22.56;39.05
40920;BME280;26652;50.280;19.026;2023-05-11T07:54:05;98508.78;;;22.72;38.11
40920;BME280;26652;50.280;19.026;2023-05-11T07:56:17;98521.44;;;22.59;38.03
40920;BME280;26652;50.280;19.026;2023-05-11T07:58:29;98508.47;;;22.64;37.66
40920;BME280;26652;50.280;19.026;2023-05-11T08:00:34;98514.81;;;22.98;38.31
40920;BME280;26652;50.280;19.026;2023-05-11T08:02:54;98517.97;;;23.05;39.59
40920;BME280;26652;50.280;19.026;2023-05-11T08:05:02;98516.69;;;23.13;37.46
40920;BME280;26652;50.280;19.026;2023-05-11T08:07:16;98517.47;;;23.13;36.83
40920;BME280;26652;50.280;19.026;2023-05-11T08:09:30;98508.94;;;23.33;37.39
40920;BME280;26652;50.280;19.026;2023-05-11T08:11:42;98511.00;;;23.36;36.84
40920;BME280;26652;50.280;19.026;2023-05-11T08:14:02;98516.78;;;23.69;37.32
40920;BME280;26652;50.280;19.026;2023-05-11T08:16:19;98512.84;;;23.46;36.74
40920;BME280;26652;50.280;19.026;2023-05-11T08:18:27;98506.38;;;23.64;37.45
40920;BME280;26652;50.280;19.026;2023-05-11T08:20:51;98515.22;;;23.68;35.40
40920;BME280;26652;50.280;19.026;2023-05-11T08:22:59;98506.38;;;23.59;35.63
40920;BME280;26652;50.280;19.026;2023-05-11T08:25:13;98509.72;;;23.49;36.31
40920;BME280;26652;50.280;19.026;2023-05-11T08:27:22;98507.87;;;23.29;36.90
40920;BME280;26652;50.280;19.026;2023-05-11T08:29:36;98505.56;;;23.38;38.12
40920;BME280;26652;50.280;19.026;2023-05-11T08:31:44;98508.69;;;23.40;37.00
40920;BME280;26652;50.280;19.026;2023-05-11T08:33:56;98499.06;;;23.25;38.24
40920;BME280;26652;50.280;19.026;2023-05-11T08:36:04;98494.59;;;23.10;37.67
40920;BME280;26652;50.280;19.026;2023-05-11T08:38:14;98492.03;;;23.26;37.46
40920;BME280;26652;50.280;19.026;2023-05-11T08:40:29;98503.72;;;23.23;35.84
40920;BME280;26652;50.280;19.026;2023-05-11T08:42:43;98488.34;;;22.96;36.39
40920;BME280;26652;50.280;19.026;2023-05-11T08:44:58;98495.38;;;23.11;39.63
40920;BME280;26652;50.280;19.026;2023-05-11T08:47:11;98498.25;;;23.14;36.70
40920;BME280;26652;50.280;19.026;2023-05-11T08:49:20;98501.38;;;23.27;37.39
40920;BME280;26652;50.280;19.026;2023-05-11T08:51:33;98500.63;;;23.41;37.20
40920;BME280;26652;50.280;19.026;2023-05-11T08:53:39;98498.06;;;23.67;35.77
40920;BME280;26652;50.280;19.026;2023-05-11T08:55:51;98493.13;;;23.65;35.78
40920;BME280;26652;50.280;19.026;2023-05-11T08:58:03;98497.53;;;23.90;37.44
40920;BME280;26652;50.280;19.026;2023-05-11T09:00:15;98491.47;;;24.20;38.75
40920;BME280;26652;50.280;19.026;2023-05-11T09:02:22;98497.44;;;24.31;36.95
40920;BME280;26652;50.280;19.026;2023-05-11T09:04:38;98493.03;;;24.21;34.82
40920;BME280;26652;50.280;19.026;2023-05-11T09:06:47;98488.69;;;23.51;35.24
40920;BME280;26652;50.280;19.026;2023-05-11T09:08:59;98492.59;;;23.68;35.39
40920;BME280;26652;50.280;19.026;2023-05-11T09:11:10;98499.34;;;23.85;35.67
40920;BME280;26652;50.280;19.026;2023-05-11T09:13:24;98490.75;;;23.38;34.94
40920;BME280;26652;50.280;19.026;2023-05-11T09:15:43;98479.88;;;22.54;35.43
40920;BME280;26652;50.280;19.026;2023-05-11T09:18:02;98483.69;;;23.03;35.78
40920;BME280;26652;50.280;19.026;2023-05-11T09:20:10;98482.91;;;22.88;36.52
40920;BME280;26652;50.280;19.026;2023-05-11T09:22:22;98473.28;;;22.98;36.13
40920;BME280;26652;50.280;19.026;2023-05-11T09:24:29;98487.28;;;22.92;34.67
40920;BME280;26652;50.280;19.026;2023-05-11T09:26:43;98486.00;;;22.90;36.01
40920;BME280;26652;50.280;19.026;2023-05-11T09:28:58;98477.09;;;22.65;36.37
40920;BME280;26652;50.280;19.026;2023-05-11T09:31:07;98477.19;;;22.28;34.44
40920;BME280;26652;50.280;19.026;2023-05-11T09:33:26;98482.34;;;22.23;35.32
40920;BME280;26652;50.280;19.026;2023-05-11T09:35:37;98485.53;;;21.98;34.98
40920;BME280;26652;50.280;19.026;2023-05-11T09:38:10;98473.56;;;21.92;34.98
40920;BME280;26652;50.280;19.026;2023-05-11T09:40:24;98475.63;;;21.53;35.78
40920;BME280;26652;50.280;19.026;2023-05-11T09:42:40;98459.00;;;21.44;36.32
40920;BME280;26652;50.280;19.026;2023-05-11T09:44:58;98464.53;;;22.00;35.81
40920;BME280;26652;50.280;19.026;2023-05-11T09:47:15;98477.41;;;22.79;34.41
40920;BME280;26652;50.280;19.026;2023-05-11T09:49:29;98477.22;;;23.16;33.67
40920;BME280;26652;50.280;19.026;2023-05-11T09:51:38;98472.03;;;23.21;30.85
40920;BME280;26652;50.280;19.026;2023-05-11T09:53:49;98475.47;;;23.57;31.17
40920;BME280;26652;50.280;19.026;2023-05-11T09:56:03;98468.41;;;23.47;30.13
40920;BME280;26652;50.280;19.026;2023-05-11T09:58:17;98464.00;;;23.43;30.30
40920;BME280;26652;50.280;19.026;2023-05-11T10:00:26;98458.81;;;23.73;30.77
40920;BME280;26652;50.280;19.026;2023-05-11T10:02:40;98460.28;;;24.00;30.52
40920;BME280;26652;50.280;19.026;2023-05-11T10:04:58;98461.59;;;23.97;27.77
40920;BME280;26652;50.280;19.026;2023-05-11T10:07:03;98464.50;;;23.45;27.03
40920;BME280;26652;50.280;19.026;2023-05-11T10:09:16;98467.63;;;23.83;28.18
40920;BME280;26652;50.280;19.026;2023-05-11T10:11:26;98469.66;;;24.01;27.56
40920;BME280;26652;50.280;19.026;2023-05-11T10:13:39;98458.94;;;24.23;26.79
40920;BME280;26652;50.280;19.026;2023-05-11T10:15:51;98469.37;;;24.18;27.22
40920;BME280;26652;50.280;19.026;2023-05-11T10:18:01;98460.31;;;23.95;27.98
40920;BME280;26652;50.280;19.026;2023-05-11T10:20:10;98459.56;;;23.28;26.83
40920;BME280;26652;50.280;19.026;2023-05-11T10:22:27;98454.50;;;22.66;27.78
40920;BME280;26652;50.280;19.026;2023-05-11T10:24:32;98445.81;;;22.30;27.54
40920;BME280;26652;50.280;19.026;2023-05-11T10:26:46;98443.06;;;22.57;29.77
40920;BME280;26652;50.280;19.026;2023-05-11T10:28:52;98456.44;;;23.11;27.63
40920;BME280;26652;50.280;19.026;2023-05-11T10:31:06;98459.06;;;23.52;28.83
40920;BME280;26652;50.280;19.026;2023-05-11T10:33:13;98453.31;;;23.14;26.95
40920;BME280;26652;50.280;19.026;2023-05-11T10:35:25;98450.72;;;23.19;27.21
40920;BME280;26652;50.280;19.026;2023-05-11T10:37:31;98457.44;;;23.00;27.07
40920;BME280;26652;50.280;19.026;2023-05-11T10:39:40;98447.06;;;22.85;29.29
40920;BME280;26652;50.280;19.026;2023-05-11T10:42:06;98445.44;;;22.73;28.26
40920;BME280;26652;50.280;19.026;2023-05-11T10:45:03;98441.59;;;22.91;28.92
40920;BME280;26652;50.280;19.026;2023-05-11T10:50:15;98432.19;;;22.65;30.25
40920;BME280;26652;50.280;19.026;2023-05-11T10:55:40;98433.38;;;22.32;27.46
40920;BME280;26652;50.280;19.026;2023-05-11T11:02:49;98433.25;;;22.06;27.28
40920;BME280;26652;50.280;19.026;2023-05-11T11:05:04;98429.56;;;22.55;30.81
40920;BME280;26652;50.280;19.026;2023-05-11T11:07:17;98422.00;;;22.43;28.07
40920;BME280;26652;50.280;19.026;2023-05-11T11:09:28;98425.25;;;22.18;27.58
40920;BME280;26652;50.280;19.026;2023-05-11T11:12:09;98416.47;;;21.77;26.05
40920;BME280;26652;50.280;19.026;2023-05-11T11:14:20;98421.19;;;21.90;27.73
40920;BME280;26652;50.280;19.026;2023-05-11T11:16:30;98412.28;;;22.13;25.71
40920;BME280;26652;50.280;19.026;2023-05-11T11:18:49;98414.38;;;22.16;26.03
40920;BME280;26652;50.280;19.026;2023-05-11T11:21:00;98411.25;;;22.19;27.00
40920;BME280;26652;50.280;19.026;2023-05-11T11:25:53;98428.41;;;21.78;28.07
40920;BME280;26652;50.280;19.026;2023-05-11T11:28:11;98422.28;;;21.99;29.66
40920;BME280;26652;50.280;19.026;2023-05-11T11:30:30;98418.50;;;22.17;27.27
40920;BME280;26652;50.280;19.026;2023-05-11T11:32:43;98416.56;;;22.44;30.12
40920;BME280;26652;50.280;19.026;2023-05-11T11:34:54;98416.09;;;22.68;29.33
40920;BME280;26652;50.280;19.026;2023-05-11T11:37:02;98426.69;;;22.46;25.94
40920;BME280;26652;50.280;19.026;2023-05-11T11:39:14;98427.94;;;22.38;26.50
40920;BME280;26652;50.280;19.026;2023-05-11T11:41:28;98418.34;;;22.39;27.51
40920;BME280;26652;50.280;19.026;2023-05-11T11:43:45;98421.00;;;22.54;26.24
40920;BME280;26652;50.280;19.026;2023-05-11T11:46:01;98410.66;;;22.69;25.83
40920;BME280;26652;50.280;19.026;2023-05-11T11:48:19;98422.66;;;22.91;27.98
40920;BME280;26652;50.280;19.026;2023-05-11T11:50:28;98410.94;;;22.73;27.60
40920;BME280;26652;50.280;19.026;2023-05-11T11:52:39;98411.19;;;22.76;28.66
40920;BME280;26652;50.280;19.026;2023-05-11T11:54:48;98402.09;;;22.69;30.01
40920;BME280;26652;50.280;19.026;2023-05-11T11:57:02;98403.94;;;22.89;30.37
40920;BME280;26652;50.280;19.026;2023-05-11T11:59:09;98413.06;;;23.06;27.93